Time;durP1;ratioP1;P1;durP2;ratioP2;P2;SDS_P1;SDS_P2;PMS_P1;PMS_P2;Temp;Humidity;BMP_temperature;BMP_pressure;BME280_temperature;BME280_humidity;BME280_pressure;Samples;Min_cycle;Max_cycle;Signal;HPM_P1;HPM_P2
2022/01/01 00:02:04;;;;;;;117.00;70.03;;;;;;;5.65;95.81;93233.66;5067009;28;20217;-76
2022/01/01 00:04:30;;;;;;;108.87;63.80;;;;;;;5.60;95.33;93230.19;5069072;28;20188;-76
2022/01/01 00:06:55;;;;;;;96.40;62.50;;;;;;;5.60;95.81;93231.00;5065969;28;20225;-76
2022/01/01 00:09:21;;;;;;;91.83;56.97;;;;;;;5.34;94.79;93192.69;5067302;28;20201;-76
2022/01/01 00:11:47;;;;;;;73.53;48.33;;;;;;;5.74;93.79;93226.28;5060843;28;20214;-76
2022/01/01 00:14:12;;;;;;;74.30;49.50;;;;;;;5.41;94.92;93239.97;5053227;28;20198;-76
2022/01/01 00:16:38;;;;;;;73.07;46.07;;;;;;;5.53;94.56;93225.16;5067180;28;20247;-76
2022/01/01 00:19:03;;;;;;;68.10;44.40;;;;;;;5.61;93.65;93213.63;5070583;28;20228;-76
2022/01/01 00:21:28;;;;;;;62.80;45.00;;;;;;;5.39;94.13;93220.47;5056410;28;20209;-76
2022/01/01 00:23:54;;;;;;;46.37;35.27;;;;;;;5.38;94.21;93188.66;5053908;28;20293;-76
2022/01/01 00:26:20;;;;;;;49.90;35.83;;;;;;;5.18;95.82;93223.72;5056717;28;20242;-76
2022/01/01 00:28:45;;;;;;;49.93;35.23;;;;;;;5.16;97.15;93212.81;5066561;28;20202;-76
2022/01/01 00:31:11;;;;;;;46.37;32.07;;;;;;;5.35;94.69;93194.28;5063643;28;20228;-77
2022/01/01 00:33:37;;;;;;;39.73;28.43;;;;;;;5.27;94.34;93217.16;5066649;28;20220;-76
2022/01/01 00:36:03;;;;;;;48.30;32.20;;;;;;;5.39;95.06;93216.09;5060995;28;20313;-77
2022/01/01 00:38:28;;;;;;;42.20;31.37;;;;;;;5.34;94.36;93215.25;5052311;28;20255;-76
2022/01/01 00:40:53;;;;;;;42.30;30.57;;;;;;;5.41;94.80;93224.44;5063683;28;20252;-76
2022/01/01 00:43:19;;;;;;;47.67;33.90;;;;;;;5.39;94.04;93221.28;5069511;28;20247;-76
2022/01/01 00:45:45;;;;;;;63.67;38.97;;;;;;;5.24;94.59;93205.47;5068021;28;20251;-76
2022/01/01 00:48:10;;;;;;;60.90;40.30;;;;;;;5.38;94.13;93218.91;5063981;28;20297;-76
2022/01/01 00:50:35;;;;;;;66.80;39.93;;;;;;;5.38;94.66;93214.53;5059467;28;20225;-77
2022/01/01 00:53:01;;;;;;;65.33;41.40;;;;;;;5.05;95.65;93205.88;5069850;28;20248;-76
2022/01/01 00:55:27;;;;;;;60.83;38.10;;;;;;;5.12;95.47;93194.38;5057356;28;20177;-76
2022/01/01 00:57:52;;;;;;;57.53;38.63;;;;;;;5.26;94.51;93200.06;5066930;28;20460;-76
2022/01/01 01:00:18;;;;;;;57.33;39.00;;;;;;;5.18;94.13;93177.16;5065798;28;20220;-76
2022/01/01 01:02:43;;;;;;;57.83;37.93;;;;;;;5.21;93.67;93182.66;5061810;28;20194;-77
2022/01/01 01:05:09;;;;;;;52.20;34.00;;;;;;;5.18;93.20;93170.19;5066246;28;20221;-76
2022/01/01 01:07:34;;;;;;;44.43;31.73;;;;;;;5.29;93.72;93178.91;5069293;28;20225;-76
2022/01/01 01:10:01;;;;;;;63.13;39.20;;;;;;;5.05;95.15;93167.06;5066280;28;20917;-76
2022/01/01 01:12:35;;;;;;;62.83;40.70;;;;;;;5.26;94.02;93169.00;5067450;28;20269;-76
2022/01/01 01:15:01;;;;;;;49.33;34.43;;;;;;;5.14;95.06;93174.22;5054256;28;20197;-76
2022/01/01 01:17:26;;;;;;;52.33;36.13;;;;;;;4.98;95.23;93144.69;5056581;28;20222;-77
2022/01/01 01:19:51;;;;;;;53.03;35.07;;;;;;;4.67;96.16;93155.50;5054109;28;20198;-76
2022/01/01 01:22:17;;;;;;;53.43;34.37;;;;;;;4.78;95.77;93162.44;5067513;28;20778;-76
2022/01/01 01:24:43;;;;;;;55.03;35.57;;;;;;;5.02;95.71;93175.28;5069387;28;20194;-76
2022/01/01 01:27:08;;;;;;;58.43;37.03;;;;;;;4.74;95.43;93135.47;5050718;28;20308;-76
2022/01/01 01:29:37;;;;;;;55.20;36.60;;;;;;;5.07;94.57;93170.22;5056013;28;20189;-76
2022/01/01 01:32:03;;;;;;;57.70;37.80;;;;;;;4.91;96.01;93162.19;5066406;28;20301;-76
2022/01/01 01:34:29;;;;;;;58.47;39.57;;;;;;;4.71;95.75;93171.34;5065144;28;20194;-76
2022/01/01 01:36:54;;;;;;;58.70;39.77;;;;;;;4.62;95.93;93157.22;5058149;28;20229;-77
2022/01/01 01:39:19;;;;;;;56.97;38.93;;;;;;;4.75;96.32;93199.09;5052738;28;20215;-77
2022/01/01 01:41:46;;;;;;;62.23;40.60;;;;;;;4.85;96.65;93201.91;5064361;28;20302;-77
2022/01/01 01:44:30;;;;;;;61.13;40.63;;;;;;;4.89;96.99;93212.56;5067956;28;20696;-76
2022/01/01 01:46:56;;;;;;;58.53;38.97;;;;;;;4.68;97.33;93200.25;5050103;28;20237;-77
2022/01/01 01:49:22;;;;;;;65.87;42.30;;;;;;;4.62;97.32;93189.00;5054246;28;20236;-76
2022/01/01 01:51:49;;;;;;;61.97;41.63;;;;;;;4.63;97.44;93189.78;5066188;28;20245;-76
2022/01/01 01:54:16;;;;;;;63.90;41.53;;;;;;;4.82;97.67;93204.91;5057208;28;20187;-77
2022/01/01 01:56:43;;;;;;;65.30;40.97;;;;;;;4.73;96.21;93210.69;5065161;28;20225;-76
2022/01/01 01:59:10;;;;;;;70.10;43.87;;;;;;;4.51;98.39;93213.06;5067054;28;20224;-76
2022/01/01 02:01:36;;;;;;;68.77;44.23;;;;;;;4.60;97.93;93203.97;5059748;28;20228;-76
2022/01/01 02:04:01;;;;;;;67.43;42.63;;;;;;;4.29;98.81;93175.13;5039516;28;20201;-76
2022/01/01 02:06:27;;;;;;;61.90;41.47;;;;;;;4.50;98.45;93193.41;5071292;28;20229;-76
2022/01/01 02:08:52;;;;;;;64.73;41.77;;;;;;;4.52;97.48;93173.31;5056809;28;20193;-76
2022/01/01 02:11:20;;;;;;;76.47;41.93;;;;;;;4.59;96.90;93173.94;5066676;28;20229;-76
2022/01/01 02:18:53;;;;;;;67.60;42.33;;;;;;;4.51;98.65;93166.53;5070760;28;20204;-76
2022/01/01 02:21:20;;;;;;;66.60;42.20;;;;;;;4.30;97.14;93130.16;5070705;28;20236;-76
2022/01/01 02:23:47;;;;;;;67.00;41.23;;;;;;;4.52;96.09;93178.47;5071265;28;20256;-76
2022/01/01 02:26:15;;;;;;;65.47;42.00;;;;;;;4.29;98.13;93175.13;5059548;28;20244;-77
2022/01/01 02:28:42;;;;;;;64.90;43.10;;;;;;;4.50;96.88;93161.59;5056113;28;20217;-76
2022/01/01 02:31:08;;;;;;;62.67;41.00;;;;;;;4.44;97.86;93160.72;5069076;28;20240;-76
2022/01/01 02:33:34;;;;;;;65.53;44.43;;;;;;;4.50;97.94;93153.84;5065261;28;20189;-76
2022/01/01 02:36:00;;;;;;;66.30;44.73;;;;;;;4.28;97.90;93150.31;5065556;28;20230;-76
2022/01/01 02:38:25;;;;;;;71.83;43.80;;;;;;;4.42;97.72;93136.88;5072064;28;20212;-76
2022/01/01 02:40:51;;;;;;;71.73;45.23;;;;;;;4.39;98.24;93146.91;5052626;28;20217;-76
2022/01/01 02:43:17;;;;;;;68.30;44.17;;;;;;;4.34;97.94;93164.91;5072201;28;20198;-77
2022/01/01 02:45:43;;;;;;;65.83;41.10;;;;;;;4.23;99.25;93161.31;5054467;28;20229;-77
2022/01/01 02:48:12;;;;;;;70.37;43.50;;;;;;;4.23;100.00;93147.59;5070943;28;20225;-76
2022/01/01 02:50:38;;;;;;;71.10;43.37;;;;;;;4.17;100.00;93171.78;5070309;28;20243;-76
2022/01/01 02:53:11;;;;;;;69.93;43.23;;;;;;;4.04;100.00;93146.16;5065476;28;20959;-76
2022/01/01 02:55:36;;;;;;;64.73;40.27;;;;;;;4.15;100.00;93142.78;5058933;28;20251;-76
2022/01/01 02:58:01;;;;;;;60.70;40.80;;;;;;;4.31;100.00;93150.63;5068850;28;20205;-76
2022/01/01 03:00:27;;;;;;;61.10;38.20;;;;;;;4.20;100.00;93148.81;5069857;28;20185;-76
2022/01/01 03:02:52;;;;;;;62.07;39.27;;;;;;;4.36;100.00;93163.66;5068401;28;20189;-76
2022/01/01 03:05:18;;;;;;;60.43;38.93;;;;;;;4.43;100.00;93148.81;5069805;28;20189;-76
2022/01/01 03:07:43;;;;;;;61.83;39.13;;;;;;;3.90;100.00;93080.25;5070170;28;20221;-76
2022/01/01 03:10:09;;;;;;;60.30;37.87;;;;;;;4.34;100.00;93139.81;5062501;28;20667;-76
2022/01/01 03:12:34;;;;;;;54.30;34.73;;;;;;;4.31;100.00;93085.25;5063079;28;21078;-76
2022/01/01 03:15:00;;;;;;;51.50;33.77;;;;;;;4.47;100.00;93107.78;5071261;28;20254;-77
2022/01/01 03:17:25;;;;;;;49.10;32.60;;;;;;;4.48;100.00;93125.63;5070947;28;20246;-76
2022/01/01 03:19:51;;;;;;;47.67;32.37;;;;;;;4.54;100.00;93119.56;5065634;28;20201;-76
2022/01/01 03:22:16;;;;;;;51.90;32.07;;;;;;;4.38;100.00;93109.94;5067276;28;20233;-77
2022/01/01 03:24:41;;;;;;;48.40;31.43;;;;;;;4.50;100.00;93122.81;5071109;28;20197;-76
2022/01/01 03:27:07;;;;;;;42.33;29.57;;;;;;;4.37;100.00;93090.25;5050987;28;20251;-76
2022/01/01 03:29:33;;;;;;;48.97;30.90;;;;;;;4.62;100.00;93126.94;5066144;28;20193;-76
2022/01/01 03:31:58;;;;;;;41.00;29.20;;;;;;;4.69;100.00;93127.63;5055509;28;20225;-76
2022/01/01 03:34:24;;;;;;;44.73;29.07;;;;;;;4.67;100.00;93097.81;5062558;28;20190;-76
2022/01/01 03:36:49;;;;;;;39.13;28.63;;;;;;;4.80;100.00;93118.25;5066941;28;20687;-76
2022/01/01 03:39:15;;;;;;;37.20;27.90;;;;;;;5.04;100.00;93108.56;5067969;28;20229;-76
2022/01/01 03:41:40;;;;;;;41.90;28.57;;;;;;;5.10;100.00;93133.53;5055519;28;20252;-76
2022/01/01 03:44:06;;;;;;;39.40;27.47;;;;;;;5.06;100.00;93127.25;5069818;28;20186;-76
2022/01/01 03:46:31;;;;;;;36.20;26.50;;;;;;;5.05;100.00;93141.19;5065660;28;20273;-76
2022/01/01 03:48:57;;;;;;;39.87;26.57;;;;;;;5.13;100.00;93127.88;5051228;28;20197;-76
2022/01/01 03:51:22;;;;;;;39.30;28.13;;;;;;;5.18;100.00;93125.38;5052887;28;20218;-76
2022/01/01 03:53:47;;;;;;;37.93;26.13;;;;;;;5.19;100.00;93130.34;5069799;28;20193;-76
2022/01/01 03:56:14;;;;;;;34.70;25.63;;;;;;;5.23;99.96;93107.38;5066265;28;20232;-76
2022/01/01 03:58:41;;;;;;;35.50;27.20;;;;;;;5.05;99.42;93121.28;5056805;28;20213;-76
2022/01/01 04:01:06;;;;;;;36.63;25.57;;;;;;;5.22;100.00;93142.00;5060906;28;20225;-76
2022/01/01 04:03:31;;;;;;;33.67;23.97;;;;;;;5.18;99.40;93112.44;5065893;28;20208;-76
2022/01/01 04:05:57;;;;;;;33.00;23.77;;;;;;;4.95;99.94;93071.94;5050312;28;20217;-76
2022/01/01 04:08:22;;;;;;;38.73;25.83;;;;;;;5.20;100.00;93107.84;5065532;28;20221;-76
2022/01/01 04:10:48;;;;;;;36.17;25.70;;;;;;;5.06;100.00;93080.69;5052092;28;20236;-76
2022/01/01 04:13:13;;;;;;;32.83;25.20;;;;;;;5.18;99.88;93100.31;5067115;28;20201;-76
2022/01/01 04:15:41;;;;;;;37.80;24.67;;;;;;;5.02;100.00;93100.25;5051146;28;20229;-76
2022/01/01 04:18:12;;;;;;;34.57;26.63;;;;;;;5.08;100.00;93081.22;5061287;28;20193;-77
2022/01/01 04:20:38;;;;;;;30.70;22.50;;;;;;;5.67;99.09;93083.19;5069790;28;20280;-76
2022/01/01 04:23:08;;;;;;;26.03;21.20;;;;;;;5.72;96.85;93065.13;5069052;28;20304;-76
2022/01/01 04:25:34;;;;;;;27.80;20.13;;;;;;;6.11;95.86;93074.53;5054520;28;20264;-76
2022/01/01 04:27:59;;;;;;;28.30;21.50;;;;;;;6.12;95.45;93089.84;5069943;28;20236;-76
2022/01/01 04:30:28;;;;;;;31.90;22.70;;;;;;;6.09;94.02;93061.00;5050353;28;20206;-76
2022/01/01 04:32:54;;;;;;;30.73;23.07;;;;;;;6.14;93.73;93081.81;5049464;28;20181;-76
2022/01/01 04:35:19;;;;;;;30.83;22.87;;;;;;;6.10;93.96;93067.78;5066763;28;20224;-76
2022/01/01 04:37:45;;;;;;;33.27;24.77;;;;;;;6.06;94.29;93077.03;5068700;28;20201;-76
2022/01/01 04:40:12;;;;;;;27.47;23.00;;;;;;;5.95;94.43;93086.50;5067103;28;20185;-76
2022/01/01 04:42:38;;;;;;;34.20;25.10;;;;;;;5.96;94.36;93069.16;5069703;28;20181;-77
2022/01/01 04:45:03;;;;;;;33.97;25.53;;;;;;;5.98;93.20;93077.44;5050705;28;20216;-76
2022/01/01 04:47:29;;;;;;;27.83;22.53;;;;;;;5.82;94.67;93071.28;5069303;28;20230;-76
2022/01/01 04:49:54;;;;;;;41.77;34.07;;;;;;;5.64;95.73;93071.50;5056942;28;20190;-77
2022/01/01 04:52:20;;;;;;;27.80;21.10;;;;;;;5.66;95.67;93061.72;5053673;28;20217;-76
2022/01/01 04:54:46;;;;;;;28.33;22.33;;;;;;;5.54;96.09;93055.03;5062034;28;20234;-76
2022/01/01 04:57:12;;;;;;;26.63;21.30;;;;;;;5.65;95.75;93049.75;5054612;28;20213;-77
2022/01/01 04:59:39;;;;;;;22.10;18.30;;;;;;;5.87;94.48;93062.78;5069615;28;20190;-77
2022/01/01 05:02:05;;;;;;;24.77;21.17;;;;;;;5.91;94.56;93079.44;5051160;28;20233;-77
2022/01/01 05:04:30;;;;;;;23.70;19.80;;;;;;;5.75;94.31;93060.28;5068750;28;20264;-76
2022/01/01 05:06:56;;;;;;;29.47;22.03;;;;;;;5.88;94.19;93065.13;5057003;28;20221;-76
2022/01/01 05:09:22;;;;;;;26.50;21.37;;;;;;;5.98;93.79;93056.72;5064607;28;20192;-77
2022/01/01 05:11:48;;;;;;;24.47;20.93;;;;;;;5.80;94.60;93056.97;5062437;28;20222;-76
2022/01/01 05:14:14;;;;;;;26.40;20.93;;;;;;;6.22;92.00;93096.97;5059500;28;20276;-76
2022/01/01 05:16:40;;;;;;;25.13;20.47;;;;;;;5.98;92.68;93096.38;5069256;28;20252;-76
2022/01/01 05:19:06;;;;;;;24.80;20.77;;;;;;;5.90;93.15;93108.97;5064122;28;20204;-76
2022/01/01 05:21:34;;;;;;;28.20;22.20;;;;;;;5.95;92.21;93093.47;5063348;28;20218;-77
2022/01/01 05:24:01;;;;;;;22.83;19.40;;;;;;;6.06;91.65;93124.47;5067476;28;20213;-77
2022/01/01 05:26:26;;;;;;;23.47;20.87;;;;;;;5.78;91.79;93103.03;5057877;28;20245;-77
2022/01/01 05:28:52;;;;;;;27.63;22.27;;;;;;;5.69;92.74;93127.78;5053699;28;20214;-77
2022/01/01 05:31:21;;;;;;;27.00;20.47;;;;;;;5.51;94.50;93130.63;5056049;28;20226;-76
2022/01/01 05:33:51;;;;;;;29.00;22.40;;;;;;;5.41;95.82;93125.25;5070961;28;20221;-76
2022/01/01 05:36:17;;;;;;;25.17;21.07;;;;;;;5.56;95.49;93125.50;5069733;28;20229;-76
2022/01/01 05:38:44;;;;;;;27.07;21.53;;;;;;;5.27;96.46;93135.13;5061931;28;20193;-76
2022/01/01 05:41:10;;;;;;;27.40;21.57;;;;;;;5.42;95.92;93126.81;5071686;28;20235;-77
2022/01/01 05:43:35;;;;;;;26.13;21.23;;;;;;;5.45;95.03;93131.56;5068053;28;20217;-77
2022/01/01 05:46:01;;;;;;;26.17;20.27;;;;;;;5.45;94.44;93147.09;5052767;28;20236;-76
2022/01/01 05:48:27;;;;;;;27.57;22.33;;;;;;;5.08;96.35;93138.94;5069239;28;20201;-76
2022/01/01 05:50:53;;;;;;;26.00;20.17;;;;;;;4.92;97.35;93137.88;5071659;28;20979;-77
2022/01/01 05:53:19;;;;;;;29.83;22.80;;;;;;;5.01;96.55;93150.44;5056939;28;20190;-77
2022/01/01 05:55:45;;;;;;;29.63;23.53;;;;;;;5.07;96.34;93131.41;5062445;28;20237;-77
2022/01/01 05:58:11;;;;;;;28.20;23.23;;;;;;;5.01;96.51;93133.13;5059882;28;20178;-77
2022/01/01 06:00:37;;;;;;;27.33;22.93;;;;;;;4.79;96.79;93127.03;5064923;28;20263;-76
2022/01/01 06:03:03;;;;;;;28.77;21.13;;;;;;;4.62;97.81;93106.25;5052989;28;20189;-77
2022/01/01 06:05:30;;;;;;;36.77;21.77;;;;;;;4.62;98.69;93106.25;5070980;28;20229;-76
2022/01/01 06:07:56;;;;;;;25.80;22.10;;;;;;;4.77;98.76;93114.31;5071791;28;20262;-77
2022/01/01 06:10:23;;;;;;;25.60;22.83;;;;;;;4.90;98.79;93103.69;5072516;28;20189;-77
2022/01/01 06:12:49;;;;;;;24.93;21.43;;;;;;;4.87;96.62;93109.31;5072838;28;20413;-77
2022/01/01 06:15:14;;;;;;;29.80;22.50;;;;;;;4.86;96.95;93112.13;5057200;28;20194;-77
2022/01/01 06:17:40;;;;;;;30.57;23.17;;;;;;;4.78;97.86;93115.09;5066852;28;20219;-77
2022/01/01 06:20:06;;;;;;;28.40;21.53;;;;;;;4.71;99.01;93106.69;5064601;28;20194;-77
2022/01/01 06:22:31;;;;;;;26.67;22.07;;;;;;;5.02;98.22;93113.19;5062554;28;20255;-76
2022/01/01 06:24:57;;;;;;;25.23;20.17;;;;;;;5.03;97.57;93086.31;5071051;28;20186;-76
2022/01/01 06:27:22;;;;;;;19.77;17.60;;;;;;;5.90;95.92;93117.50;5062745;28;20233;-77
2022/01/01 06:29:48;;;;;;;13.67;12.47;;;;;;;6.55;92.32;93126.16;5072222;28;20205;-76
2022/01/01 06:32:13;;;;;;;23.90;19.80;;;;;;;6.31;90.46;93121.44;5064380;28;20229;-76
2022/01/01 06:34:39;;;;;;;25.33;20.77;;;;;;;6.00;91.89;93119.47;5069345;28;20204;-76
2022/01/01 06:37:05;;;;;;;25.90;19.53;;;;;;;5.94;92.21;93112.66;5064159;28;20233;-76
2022/01/01 06:39:30;;;;;;;19.53;17.20;;;;;;;5.99;92.88;93128.28;5066664;28;20194;-76
2022/01/01 06:41:56;;;;;;;20.80;17.77;;;;;;;6.41;91.24;93122.34;5055304;28;20217;-76
2022/01/01 06:44:21;;;;;;;16.13;14.43;;;;;;;6.86;88.77;93129.91;5072067;28;20181;-76
2022/01/01 06:46:47;;;;;;;20.20;18.13;;;;;;;7.23;85.81;93143.81;5071451;28;20229;-76
2022/01/01 06:49:12;;;;;;;24.87;19.80;;;;;;;6.80;86.77;93141.25;5069997;28;20201;-76
2022/01/01 06:51:38;;;;;;;21.97;19.43;;;;;;;6.93;86.60;93164.22;5071305;28;20227;-76
2022/01/01 06:54:05;;;;;;;22.47;19.77;;;;;;;6.86;87.34;93161.06;5068461;28;20208;-76
2022/01/01 06:56:30;;;;;;;21.17;18.97;;;;;;;6.70;87.64;93148.91;5069337;28;20225;-77
2022/01/01 06:58:56;;;;;;;24.90;20.27;;;;;;;6.63;88.28;93152.72;5068965;28;20201;-77
2022/01/01 07:01:21;;;;;;;24.63;19.87;;;;;;;6.55;89.17;93165.06;5070467;28;20240;-77
2022/01/01 07:03:46;;;;;;;27.90;22.47;;;;;;;6.52;88.00;93165.53;5061193;28;20194;-76
2022/01/01 07:06:12;;;;;;;25.40;21.13;;;;;;;6.46;88.74;93157.94;5068669;28;20225;-76
2022/01/01 07:08:37;;;;;;;24.67;21.10;;;;;;;6.44;88.63;93134.06;5062455;28;20356;-76
2022/01/01 07:11:03;;;;;;;25.20;21.20;;;;;;;6.59;88.02;93139.44;5063911;28;20222;-76
2022/01/01 07:13:28;;;;;;;25.10;21.83;;;;;;;6.68;88.33;93153.56;5057738;28;20193;-76
2022/01/01 07:15:54;;;;;;;26.20;22.30;;;;;;;6.48;88.41;93106.63;5067722;28;20235;-75
2022/01/01 07:18:19;;;;;;;26.00;20.73;;;;;;;6.69;88.20;93165.53;5052717;28;20221;-76
2022/01/01 07:20:45;;;;;;;26.53;21.27;;;;;;;6.81;88.23;93170.56;5069556;28;20229;-75
2022/01/01 07:23:11;;;;;;;21.20;19.00;;;;;;;6.83;87.84;93161.53;5068277;28;20292;-76
2022/01/01 07:25:36;;;;;;;21.80;19.60;;;;;;;6.72;88.35;93152.06;5058519;28;20647;-76
2022/01/01 07:28:03;;;;;;;21.47;19.20;;;;;;;6.68;88.12;93165.75;5060853;28;20312;-76
2022/01/01 07:30:28;;;;;;;21.60;18.83;;;;;;;6.83;88.45;93176.31;5063842;28;20277;-76
2022/01/01 07:32:54;;;;;;;20.73;17.70;;;;;;;6.66;89.50;93175.59;5056699;28;20178;-76
2022/01/01 07:35:21;;;;;;;23.70;19.43;;;;;;;6.75;88.92;93159.38;5065268;28;20189;-76
2022/01/01 07:37:48;;;;;;;19.43;17.20;;;;;;;6.93;88.09;93173.81;5069442;28;20173;-76
2022/01/01 07:40:15;;;;;;;20.73;17.97;;;;;;;7.05;88.23;93180.47;5068649;28;20196;-75
2022/01/01 07:42:41;;;;;;;18.20;16.00;;;;;;;7.44;87.19;93181.91;5064589;28;20177;-76
2022/01/01 07:45:08;;;;;;;13.87;12.73;;;;;;;7.97;84.74;93181.09;5061420;28;20194;-76
2022/01/01 07:47:33;;;;;;;11.53;10.80;;;;;;;8.79;80.73;93187.38;5054093;28;20286;-75
2022/01/01 07:49:59;;;;;;;9.90;9.50;;;;;;;9.57;75.93;93183.75;5059249;28;20614;-76
2022/01/01 07:52:24;;;;;;;9.20;8.73;;;;;;;9.93;74.04;93201.00;5068249;28;20220;-75
2022/01/01 07:54:50;;;;;;;10.80;10.30;;;;;;;10.18;72.45;93195.81;5057106;28;20182;-77
2022/01/01 07:57:16;;;;;;;10.57;10.13;;;;;;;10.50;70.58;93201.56;5054760;28;20252;-76
2022/01/01 07:59:41;;;;;;;14.03;12.97;;;;;;;10.53;70.93;93192.41;5058620;28;20193;-76
2022/01/01 08:02:06;;;;;;;9.90;9.40;;;;;;;10.87;68.73;93194.16;5060932;28;20229;-76
2022/01/01 08:04:32;;;;;;;11.47;10.97;;;;;;;11.05;67.29;93188.34;5058853;28;20201;-75
2022/01/01 08:06:57;;;;;;;10.70;10.23;;;;;;;11.13;66.26;93182.59;5068474;28;20221;-77
2022/01/01 08:09:23;;;;;;;9.27;8.87;;;;;;;11.18;65.62;93169.50;5053637;28;20209;-76
2022/01/01 08:11:50;;;;;;;9.10;8.70;;;;;;;11.38;64.98;93194.00;5051817;28;20253;-76
2022/01/01 08:14:16;;;;;;;10.63;10.13;;;;;;;11.57;63.39;93192.31;5068080;28;20189;-76
2022/01/01 08:17:04;;;;;;;9.37;8.87;;;;;;;11.75;63.81;93189.13;5066801;28;20249;-76
2022/01/01 08:19:30;;;;;;;9.47;8.97;;;;;;;11.74;63.25;93177.88;5056791;28;20194;-76
2022/01/01 08:21:56;;;;;;;10.20;9.70;;;;;;;11.79;63.39;93179.66;5067402;28;20217;-76
2022/01/01 08:24:23;;;;;;;10.60;10.10;;;;;;;11.97;62.45;93194.75;5065713;28;20201;-77
2022/01/01 08:26:49;;;;;;;11.13;10.53;;;;;;;11.74;63.32;93192.78;5066323;28;20281;-77
2022/01/01 08:29:15;;;;;;;9.53;9.03;;;;;;;11.68;62.81;93201.69;5069325;28;20725;-75
2022/01/01 08:31:41;;;;;;;9.67;9.17;;;;;;;11.52;63.27;93189.75;5067490;28;20230;-76
2022/01/01 08:34:06;;;;;;;10.40;9.90;;;;;;;11.44;63.24;93183.22;5061836;28;20185;-77
2022/01/01 08:36:31;;;;;;;9.97;9.57;;;;;;;11.55;63.10;93191.81;5057251;28;20292;-76
2022/01/01 08:38:57;;;;;;;10.70;10.20;;;;;;;11.60;61.85;93203.03;5061797;28;20185;-76
2022/01/01 08:41:22;;;;;;;9.70;9.30;;;;;;;11.64;62.35;93211.16;5068513;28;20221;-77
2022/01/01 08:43:48;;;;;;;10.20;9.50;;;;;;;11.66;62.06;93206.44;5057705;28;20238;-77
2022/01/01 08:46:13;;;;;;;10.30;9.80;;;;;;;11.82;61.75;93205.28;5061633;28;20228;-76
2022/01/01 08:48:41;;;;;;;10.70;10.00;;;;;;;11.69;62.32;93205.91;5066593;28;20209;-76
2022/01/01 08:51:16;;;;;;;9.70;9.20;;;;;;;11.80;61.56;93186.47;5061539;28;20218;-76
2022/01/01 08:53:42;;;;;;;10.30;9.63;;;;;;;11.95;62.75;93207.31;5069642;28;20219;-76
2022/01/01 08:56:08;;;;;;;10.70;10.13;;;;;;;12.00;62.13;93213.28;5066049;28;20233;-76
2022/01/01 08:58:34;;;;;;;9.77;9.33;;;;;;;11.82;61.95;93195.59;5067914;28;20190;-76
2022/01/01 09:01:00;;;;;;;9.53;9.13;;;;;;;12.03;60.58;93219.81;5066005;28;20221;-77
2022/01/01 09:03:26;;;;;;;9.30;8.90;;;;;;;11.78;61.33;93204.28;5056616;28;20186;-76
2022/01/01 09:05:51;;;;;;;9.90;9.40;;;;;;;11.93;60.86;93219.88;5073328;28;20696;-76
2022/01/01 09:08:17;;;;;;;9.70;9.30;;;;;;;11.67;61.24;93203.56;5072648;28;20225;-76
2022/01/01 09:10:42;;;;;;;9.67;9.27;;;;;;;11.83;62.06;93233.78;5065473;28;20244;-78
2022/01/01 09:13:08;;;;;;;9.70;9.20;;;;;;;11.60;62.63;93229.19;5053670;28;20205;-76
2022/01/01 09:15:33;;;;;;;10.00;9.43;;;;;;;11.44;63.42;93250.44;5039231;28;20237;-77
2022/01/01 09:17:58;;;;;;;10.37;9.77;;;;;;;11.38;63.42;93225.38;5059114;28;20200;-77
2022/01/01 09:20:24;;;;;;;11.27;10.67;;;;;;;11.53;63.46;93238.38;5072046;28;20229;-76
2022/01/01 09:22:49;;;;;;;10.57;9.97;;;;;;;11.69;62.72;93232.81;5073499;28;20228;-77
2022/01/01 09:25:15;;;;;;;10.07;9.57;;;;;;;11.89;63.05;93237.19;5073117;28;20190;-76
2022/01/01 09:27:40;;;;;;;10.47;9.87;;;;;;;12.05;61.85;93246.47;5069200;28;20218;-77
2022/01/01 09:30:06;;;;;;;9.50;9.10;;;;;;;12.08;62.46;93243.31;5063034;28;20744;-75
2022/01/01 09:32:33;;;;;;;11.03;10.33;;;;;;;12.25;61.40;93236.66;5071741;28;20217;-77
2022/01/01 09:35:00;;;;;;;9.17;8.77;;;;;;;12.38;59.64;93230.81;5072793;28;20194;-77
2022/01/01 09:37:27;;;;;;;10.23;9.70;;;;;;;12.31;59.61;93224.31;5070816;28;20238;-76
2022/01/01 09:39:52;;;;;;;9.53;8.97;;;;;;;12.61;59.32;93252.88;5059511;28;20177;-76
2022/01/01 09:42:21;;;;;;;10.53;10.10;;;;;;;12.91;58.72;93242.94;5067987;28;20309;-77
2022/01/01 09:44:47;;;;;;;10.33;9.80;;;;;;;13.20;58.14;93253.41;5056661;28;20190;-76
2022/01/01 09:47:12;;;;;;;8.87;8.27;;;;;;;13.47;57.39;93251.00;5056273;28;20226;-76
2022/01/01 09:49:39;;;;;;;10.03;9.53;;;;;;;13.26;56.82;93251.53;5044550;28;20196;-77
2022/01/01 09:52:05;;;;;;;9.47;8.87;;;;;;;13.10;57.17;93269.25;5067629;28;20217;-76
2022/01/01 09:54:31;;;;;;;9.77;9.27;;;;;;;12.58;59.66;93248.97;5056378;28;20190;-77
2022/01/01 09:56:56;;;;;;;10.03;9.47;;;;;;;12.75;60.80;93272.94;5072762;28;20294;-78
2022/01/01 09:59:22;;;;;;;9.50;9.00;;;;;;;12.59;60.63;93255.00;5073687;28;20191;-77
2022/01/01 10:01:47;;;;;;;12.10;11.40;;;;;;;12.62;61.27;93276.19;5067094;28;20234;-77
2022/01/01 10:04:14;;;;;;;11.30;10.60;;;;;;;12.32;61.75;93278.25;5062402;28;20187;-75
2022/01/01 10:06:41;;;;;;;10.87;10.13;;;;;;;12.24;62.23;93276.19;5065028;28;20226;-76
2022/01/01 10:09:08;;;;;;;9.97;9.37;;;;;;;12.34;61.37;93276.91;5068815;28;20276;-76
2022/01/01 10:11:36;;;;;;;10.60;10.00;;;;;;;12.55;60.15;93288.03;5060733;28;20228;-76
2022/01/01 10:14:06;;;;;;;9.47;8.97;;;;;;;12.47;58.23;93289.41;5035337;28;20816;-76
2022/01/01 10:16:32;;;;;;;10.53;9.80;;;;;;;12.19;60.53;93271.78;5070048;28;20239;-76
2022/01/01 10:18:58;;;;;;;10.17;9.47;;;;;;;12.39;59.90;93278.75;5069119;28;20206;-75
2022/01/01 10:21:27;;;;;;;10.07;9.57;;;;;;;12.25;59.75;93278.53;5069652;28;20226;-77
2022/01/01 10:23:55;;;;;;;10.57;9.93;;;;;;;12.23;59.85;93275.41;5062356;28;20222;-75
2022/01/01 10:29:08;;;;;;;11.10;10.30;;;;;;;12.14;59.86;93281.50;5066070;28;20209;-77
2022/01/01 10:31:35;;;;;;;10.93;10.13;;;;;;;12.28;58.87;93267.53;5056396;28;20229;-77
2022/01/01 10:34:08;;;;;;;15.13;14.13;;;;;;;12.36;58.35;93250.44;5070410;28;20191;-77
2022/01/01 10:36:34;;;;;;;12.10;11.30;;;;;;;12.17;57.78;93218.16;5069889;28;20230;-76
2022/01/01 10:39:15;;;;;;;11.23;10.43;;;;;;;12.30;58.56;93256.78;5061502;28;20216;-76
2022/01/01 10:42:12;;;;;;;13.20;11.90;;;;;;;12.11;59.00;93243.56;5061509;28;20233;-76
2022/01/01 10:44:38;;;;;;;12.63;11.60;;;;;;;12.01;60.71;93229.75;5040053;28;20261;-77
2022/01/01 10:47:18;;;;;;;12.03;10.93;;;;;;;12.06;61.50;93240.22;5067160;28;20252;-76
2022/01/01 10:52:14;;;;;;;11.83;11.10;;;;;;;12.07;60.52;93233.91;5063792;28;20237;-76
2022/01/01 10:54:58;;;;;;;11.57;10.77;;;;;;;12.28;60.62;93240.59;5064568;28;20705;-77
2022/01/01 10:57:33;;;;;;;10.97;10.27;;;;;;;12.32;59.30;93236.34;5055498;28;20229;-76
2022/01/01 11:00:17;;;;;;;11.43;10.73;;;;;;;12.58;58.57;93232.47;5060986;28;20488;-76
2022/01/01 11:02:51;;;;;;;11.57;10.87;;;;;;;12.71;58.24;93234.47;5069879;28;20213;-76
2022/01/01 11:05:30;;;;;;;11.30;10.47;;;;;;;13.05;56.69;93223.94;5070228;28;20190;-76
2022/01/01 11:07:56;;;;;;;12.00;11.23;;;;;;;12.88;56.08;93225.13;5053667;28;20213;-76
2022/01/01 11:10:23;;;;;;;11.20;10.40;;;;;;;13.06;56.58;93221.03;5052582;28;20209;-77
2022/01/01 11:12:50;;;;;;;10.67;9.87;;;;;;;12.83;55.82;93219.16;5065712;28;20207;-76
2022/01/01 11:15:16;;;;;;;11.13;10.43;;;;;;;12.77;56.92;93223.66;5056249;28;20262;-76
2022/01/01 11:17:46;;;;;;;11.33;10.70;;;;;;;12.86;56.61;93234.31;5057558;28;20206;-77
2022/01/01 11:20:13;;;;;;;11.50;10.80;;;;;;;12.82;57.47;93235.94;5061222;28;20179;-77
2022/01/01 11:22:38;;;;;;;11.07;10.37;;;;;;;12.76;57.92;93237.81;5058029;28;20226;-77
2022/01/01 11:25:04;;;;;;;11.30;10.47;;;;;;;12.99;57.81;93231.06;5066047;28;20679;-76
2022/01/01 11:27:31;;;;;;;11.73;10.73;;;;;;;13.01;55.99;93202.78;5058506;28;20251;-76
2022/01/01 11:29:59;;;;;;;11.50;10.80;;;;;;;13.07;55.06;93229.69;5066531;28;20273;-77
2022/01/01 11:32:39;;;;;;;10.77;9.97;;;;;;;12.74;56.90;93226.84;5069294;28;20226;-76